createdAt,value
2019-04-21T04:03:28.148Z,20.00
2019-04-21T04:05:03.722Z,24.00
2019-04-21T04:07:25.054Z,36.00
2019-04-21T04:09:19.182Z,48.00
2019-04-21T04:11:23.460Z,60.00
2019-04-21T04:13:00.811Z,84.00
2019-04-21T04:18:59.124Z,172.00
2019-04-21T04:21:10.205Z,208.00
2019-04-21T04:23:03.333Z,260.00
2019-04-21T04:27:21.312Z,368.00
2019-04-21T04:29:08.862Z,432.00
2019-04-21T04:31:08.152Z,512.00
2019-04-21T04:32:59.377Z,596.00
2019-04-21T04:35:03.832Z,688.00
2019-04-21T04:37:06.013Z,788.00
2019-04-21T04:39:29.836Z,900.00
2019-04-21T04:41:10.965Z,1020.00
2019-04-21T04:43:09.810Z,1148.00
2019-04-21T04:47:05.561Z,1424.00
2019-04-21T04:49:01.726Z,1576.00
2019-04-21T04:51:07.372Z,1732.00
2019-04-21T04:52:51.295Z,1896.00
2019-04-21T04:55:00.570Z,2060.00
2019-04-21T04:57:08.405Z,2224.00
2019-04-21T04:59:23.106Z,2388.00
2019-04-21T05:01:16.984Z,2560.00
2019-04-21T05:02:55.935Z,2724.00
2019-04-21T05:05:07.099Z,2888.00
2019-04-21T05:06:56.334Z,3056.00
2019-04-21T05:11:07.207Z,3396.00
2019-04-21T05:12:58.171Z,3564.00
2019-04-21T05:14:59.923Z,3736.00
2019-04-21T05:21:03.593Z,4616.00
2019-04-21T05:22:56.403Z,5676.00
2019-04-21T05:24:50.975Z,10528.00
2019-04-21T05:26:49.344Z,13152.00
2019-04-21T05:28:42.039Z,15840.00
2019-04-21T05:30:58.437Z,15712.00
2019-04-21T05:32:58.359Z,13280.00
2019-04-21T05:34:53.329Z,6264.00
2019-04-21T05:36:52.408Z,9104.00
2019-04-21T05:38:50.535Z,14848.00
2019-04-21T05:40:45.452Z,30240.00
2019-04-21T05:42:45.462Z,29440.00
2019-04-21T05:45:00.202Z,32224.00
2019-04-21T05:46:59.441Z,32800.00
2019-04-21T05:48:51.907Z,34144.00
2019-04-21T05:50:52.147Z,34080.00
2019-04-21T05:52:48.986Z,35168.00
2019-04-21T05:54:57.001Z,35840.00
2019-04-21T05:56:48.759Z,35808.00
2019-04-21T05:58:48.235Z,35968.00
2019-04-21T06:01:06.318Z,35872.00
2019-04-21T06:02:57.848Z,36480.00
2019-04-21T06:06:58.753Z,35712.00
2019-04-21T06:08:48.071Z,34688.00
2019-04-21T06:10:54.002Z,36576.00
2019-04-21T06:12:51.054Z,37120.00
2019-04-21T06:14:55.906Z,35360.00
2019-04-21T06:16:55.670Z,36640.00
2019-04-21T06:18:53.049Z,36416.00
2019-04-21T06:20:55.062Z,36736.00
2019-04-21T06:22:53.176Z,37792.00
2019-04-21T06:25:21.263Z,37408.00
2019-04-21T06:27:00.358Z,36448.00
2019-04-21T06:28:50.318Z,35584.00
2019-04-21T06:30:59.214Z,36416.00
2019-04-21T06:33:13.851Z,37024.00
2019-04-21T06:36:57.364Z,35584.00
2019-04-21T06:39:10.249Z,35872.00
2019-04-21T06:41:00.429Z,35456.00
2019-04-21T06:43:08.225Z,35104.00
2019-04-21T06:45:07.299Z,35904.00
2019-04-21T06:46:59.248Z,35040.00
2019-04-21T06:48:58.368Z,33664.00
2019-04-21T06:50:52.961Z,33088.00
2019-04-21T06:54:57.251Z,18912.00
2019-04-21T06:57:00.718Z,14096.00
2019-04-21T06:58:51.496Z,13904.00
2019-04-21T07:00:50.934Z,14144.00
2019-04-21T07:03:02.928Z,14880.00
2019-04-21T07:04:54.754Z,17248.00
2019-04-21T07:09:04.339Z,32160.00
2019-04-21T07:10:52.026Z,26304.00
2019-04-21T07:12:47.423Z,23872.00
2019-04-21T07:16:04.449Z,14544.00
2019-04-21T07:24:14.117Z,11468.00
2019-04-21T07:26:17.931Z,11300.00
2019-04-21T07:28:10.923Z,11168.00
2019-04-21T07:30:14.996Z,11112.00
2019-04-21T07:32:09.360Z,11040.00
2019-04-21T07:34:19.711Z,10916.00
2019-04-21T07:36:17.463Z,10752.00
2019-04-21T07:38:15.023Z,10628.00
2019-04-21T07:40:06.536Z,10488.00
2019-04-21T07:42:06.513Z,10324.00
2019-04-21T07:43:59.186Z,10128.00
2019-04-21T07:46:03.644Z,9932.00
2019-04-21T07:48:11.013Z,9736.00
2019-04-21T07:50:07.567Z,9520.00
2019-04-21T07:52:14.333Z,9380.00
2019-04-21T07:54:11.783Z,9212.00
2019-04-21T07:55:51.122Z,9080.00
2019-04-21T07:58:13.001Z,8948.00
2019-04-21T08:02:08.805Z,8748.00
2019-04-21T08:04:16.573Z,8684.00
2019-04-21T08:12:14.511Z,8360.00
2019-04-21T08:14:25.381Z,8272.00
2019-04-21T08:16:24.415Z,8192.00
2019-04-21T08:18:27.021Z,8124.00
2019-04-21T08:20:18.725Z,8096.00
2019-04-21T08:22:25.805Z,8044.00
2019-04-21T08:24:22.571Z,8000.00
2019-04-21T08:26:26.135Z,7948.00
2019-04-21T08:28:28.968Z,7896.00
2019-04-21T08:30:26.117Z,7832.00
2019-04-21T08:32:26.509Z,7808.00
2019-04-21T08:36:23.181Z,7744.00
2019-04-21T08:38:20.922Z,7708.00
2019-04-21T08:40:27.390Z,7660.00
2019-04-21T08:42:26.688Z,7608.00
2019-04-21T08:44:25.732Z,7556.00
2019-04-21T08:46:23.868Z,7508.00
2019-04-21T08:48:22.800Z,7452.00
2019-04-21T08:50:20.745Z,7404.00
2019-04-21T08:52:36.779Z,7344.00
2019-04-21T08:54:23.080Z,7416.00
2019-04-21T08:56:21.277Z,7264.00
2019-04-21T09:00:26.027Z,7176.00
2019-04-21T09:02:23.512Z,7176.00
2019-04-21T09:04:23.359Z,7148.00
2019-04-21T09:06:56.000Z,7132.00
2019-04-21T09:08:21.652Z,7108.00
2019-04-21T09:10:22.037Z,6912.00
2019-04-21T09:12:22.622Z,7084.00
2019-04-21T09:14:20.758Z,7072.00
2019-04-21T09:16:15.368Z,7060.00
2019-04-21T09:18:13.414Z,7032.00
2019-04-21T09:20:38.746Z,7028.00
2019-04-21T09:22:17.911Z,6940.00
2019-04-21T09:24:22.018Z,6864.00
2019-04-21T09:26:23.583Z,6972.00
2019-04-21T09:28:16.708Z,6844.00
2019-04-21T09:30:04.838Z,7008.00
2019-04-21T09:32:04.908Z,6760.00
2019-04-21T09:34:04.545Z,6632.00
2019-04-21T09:36:04.568Z,6640.00
2019-04-21T09:38:13.316Z,7048.00
2019-04-21T09:40:02.999Z,6628.00
2019-04-21T09:42:02.824Z,6600.00
2019-04-21T09:44:01.641Z,6908.00
2019-04-21T09:46:01.835Z,6636.00
2019-04-21T09:48:06.381Z,6892.00
2019-04-21T09:50:03.542Z,6580.00
2019-04-21T09:52:00.366Z,6792.00
2019-04-21T09:54:05.814Z,7044.00
2019-04-21T09:56:05.009Z,7016.00
2019-04-21T09:58:12.657Z,6980.00
2019-04-21T10:00:10.033Z,6992.00
2019-04-21T10:02:09.677Z,6844.00
2019-04-21T10:04:04.317Z,6932.00
2019-04-21T10:06:00.707Z,6960.00
2019-04-21T10:08:01.297Z,6912.00
2019-04-21T10:10:00.266Z,6884.00
2019-04-21T10:12:00.839Z,6880.00
2019-04-21T10:14:00.925Z,6192.00
2019-04-21T10:16:00.796Z,6896.00
2019-04-21T10:18:00.592Z,6864.00
2019-04-21T10:20:00.741Z,6828.00
2019-04-21T10:22:02.414Z,6804.00
2019-04-21T10:24:00.000Z,6772.00
2019-04-21T10:26:00.859Z,6764.00
2019-04-21T10:28:01.194Z,6748.00
2019-04-21T10:29:59.943Z,6684.00
2019-04-21T10:31:59.890Z,6600.00
2019-04-21T10:34:01.007Z,6480.00
2019-04-21T10:36:01.268Z,6364.00
2019-04-21T10:38:12.942Z,6260.00
2019-04-21T10:40:00.820Z,6180.00
2019-04-21T10:41:59.798Z,6124.00
2019-04-21T10:44:01.020Z,6056.00
2019-04-21T10:46:01.098Z,5980.00
2019-04-21T10:48:00.929Z,5956.00
2019-04-21T10:50:00.476Z,5940.00
2019-04-21T10:51:59.694Z,5916.00
2019-04-21T10:53:59.875Z,5908.00
2019-04-21T10:56:12.207Z,5884.00
2019-04-21T10:58:00.620Z,5848.00
2019-04-21T11:00:01.320Z,5864.00
2019-04-21T11:02:00.956Z,5840.00
2019-04-21T11:04:00.627Z,5796.00
2019-04-21T11:06:00.930Z,5780.00
2019-04-21T11:08:09.556Z,5780.00
2019-04-21T11:10:00.512Z,5764.00
2019-04-21T11:11:59.912Z,5744.00
2019-04-21T11:13:59.544Z,5744.00
2019-04-21T11:15:59.443Z,5708.00
2019-04-21T11:17:59.864Z,5712.00
2019-04-21T11:19:59.437Z,5704.00
2019-04-21T11:21:59.362Z,5696.00
2019-04-21T11:23:59.345Z,5684.00
2019-04-21T11:26:00.124Z,5660.00
2019-04-21T11:28:00.762Z,5648.00
2019-04-21T11:29:59.838Z,5624.00
2019-04-21T11:31:59.246Z,5612.00
2019-04-21T11:33:59.395Z,5616.00
2019-04-21T11:35:59.415Z,5604.00
2019-04-21T11:38:07.240Z,5604.00
2019-04-21T11:40:06.428Z,5580.00
2019-04-21T11:42:01.644Z,5576.00
2019-04-21T11:43:59.273Z,5552.00
2019-04-21T11:46:00.200Z,5552.00
2019-04-21T11:47:59.085Z,5512.00
2019-04-21T11:49:59.219Z,5480.00
2019-04-21T11:51:59.051Z,5464.00
2019-04-21T11:53:59.237Z,5464.00
2019-04-21T11:55:58.987Z,5444.00
2019-04-21T11:58:00.315Z,5416.00
2019-04-21T11:59:59.652Z,5400.00
2019-04-21T12:01:59.359Z,5392.00
2019-04-21T12:04:00.931Z,5380.00
2019-04-21T12:07:17.556Z,5356.00
2019-04-21T12:09:16.911Z,5340.00
2019-04-21T12:12:41.401Z,5320.00
2019-04-21T12:14:34.242Z,5320.00
2019-04-21T12:16:35.132Z,5300.00
2019-04-21T12:18:34.127Z,5308.00
2019-04-21T12:20:33.931Z,5312.00
2019-04-21T12:22:35.654Z,5288.00
2019-04-21T12:24:34.937Z,5284.00
2019-04-21T12:26:35.923Z,5296.00
2019-04-21T12:28:34.277Z,5280.00
2019-04-21T12:30:33.824Z,5240.00
2019-04-21T12:32:34.013Z,5208.00
2019-04-21T12:34:34.320Z,5200.00
2019-04-21T12:36:33.965Z,5188.00
2019-04-21T12:38:41.541Z,5184.00
2019-04-21T12:40:34.734Z,5160.00
2019-04-21T12:42:34.578Z,5144.00
2019-04-21T12:44:34.040Z,5136.00
2019-04-21T12:46:34.000Z,5120.00
2019-04-21T12:48:38.004Z,5100.00
2019-04-21T12:50:34.095Z,5092.00
2019-04-21T12:52:33.676Z,5072.00
2019-04-21T12:54:33.551Z,5052.00
2019-04-21T12:56:33.714Z,5068.00
2019-04-21T12:58:33.508Z,5052.00
2019-04-21T13:00:33.521Z,5024.00
2019-04-21T13:02:33.818Z,5012.00
2019-04-21T13:04:33.626Z,4988.00
2019-04-21T13:06:33.851Z,4980.00
2019-04-21T13:08:45.665Z,4972.00
2019-04-21T13:10:34.395Z,4948.00
2019-04-21T13:12:33.419Z,4936.00
2019-04-21T13:14:33.755Z,4920.00
2019-04-21T13:16:33.714Z,4904.00
2019-04-21T13:18:33.387Z,4892.00
2019-04-21T13:20:34.091Z,4880.00
2019-04-21T13:22:34.173Z,4876.00
2019-04-21T13:24:33.714Z,4860.00
2019-04-21T13:26:43.162Z,4848.00
2019-04-21T13:28:34.554Z,4836.00
2019-04-21T13:30:33.174Z,4836.00
2019-04-21T13:32:33.323Z,4824.00
2019-04-21T13:34:33.766Z,4812.00
2019-04-21T13:36:33.818Z,4800.00
2019-04-21T13:38:40.533Z,4796.00
2019-04-21T13:40:50.507Z,4784.00
2019-04-21T13:42:40.216Z,4780.00
2019-04-21T13:44:34.954Z,4788.00
2019-04-21T13:46:34.524Z,4772.00
2019-04-21T13:48:33.002Z,4756.00
2019-04-21T13:50:33.289Z,4756.00
2019-04-21T13:52:33.213Z,4744.00
2019-04-21T13:57:08.397Z,4728.00
2019-04-21T13:59:08.494Z,4720.00
2019-04-21T14:01:07.999Z,4708.00
2019-04-21T14:03:07.962Z,4696.00
2019-04-21T14:05:11.494Z,4708.00
2019-04-21T14:07:08.237Z,4696.00
2019-04-21T14:09:09.329Z,4684.00
2019-04-21T14:11:09.221Z,4680.00
2019-04-21T14:13:08.623Z,4660.00
2019-04-21T14:15:08.307Z,4640.00
2019-04-21T14:17:08.922Z,4660.00
2019-04-21T14:19:07.811Z,4640.00
2019-04-21T14:21:09.117Z,4648.00
2019-04-21T14:23:15.680Z,4640.00
2019-04-21T14:25:09.934Z,4632.00
2019-04-21T14:27:08.090Z,4624.00
2019-04-21T14:29:07.867Z,4624.00
2019-04-21T14:31:08.286Z,4616.00
2019-04-21T14:34:47.195Z,4596.00
2019-04-21T14:36:38.878Z,4584.00
2019-04-21T14:38:38.547Z,4584.00
2019-04-21T14:40:38.852Z,4572.00
2019-04-21T14:42:38.239Z,4552.00
2019-04-21T14:44:38.769Z,4548.00
2019-04-21T14:46:37.549Z,4532.00
2019-04-21T14:48:39.099Z,4524.00
2019-04-21T14:50:37.454Z,4516.00
2019-04-21T14:52:37.437Z,4496.00
2019-04-21T14:54:38.491Z,4472.00
2019-04-21T14:56:37.570Z,4468.00
2019-04-21T14:58:37.390Z,4440.00
2019-04-21T15:00:37.588Z,4420.00
2019-04-21T15:02:38.128Z,4392.00
2019-04-21T15:04:37.715Z,4380.00
2019-04-21T15:06:37.281Z,4368.00
2019-04-21T15:08:37.447Z,4356.00
2019-04-21T15:10:37.253Z,4340.00
2019-04-21T15:12:38.166Z,4324.00
2019-04-21T15:14:38.069Z,4300.00
2019-04-21T15:16:38.588Z,4288.00
2019-04-21T15:18:37.173Z,4268.00
2019-04-21T15:20:38.374Z,4244.00
2019-04-21T15:22:38.554Z,4376.00
2019-04-21T15:24:38.291Z,4220.00
2019-04-21T15:26:38.026Z,4196.00
2019-04-21T15:28:37.926Z,4176.00
2019-04-21T15:30:38.495Z,4148.00
2019-04-21T15:32:37.073Z,4140.00
2019-04-21T15:34:38.146Z,4128.00
2019-04-21T15:36:37.835Z,4104.00
2019-04-21T15:38:38.054Z,4080.00
2019-04-21T15:40:44.592Z,4072.00
2019-04-21T15:42:38.901Z,4056.00
2019-04-21T15:44:36.879Z,4020.00
2019-04-21T15:46:37.602Z,3992.00
2019-04-21T15:48:37.088Z,3960.00
2019-04-21T15:50:37.821Z,3916.00
2019-04-21T15:52:37.888Z,3884.00
2019-04-21T15:54:36.820Z,3860.00
2019-04-21T15:56:36.736Z,3836.00
2019-04-21T15:58:36.930Z,3804.00
2019-04-21T16:00:36.718Z,3768.00
2019-04-21T16:02:36.872Z,3720.00
2019-04-21T16:04:36.881Z,3680.00
2019-04-21T16:06:37.331Z,3644.00
2019-04-21T16:08:37.427Z,3612.00
2019-04-21T16:10:43.691Z,3576.00
2019-04-21T16:12:37.921Z,3544.00
2019-04-21T16:14:36.789Z,3508.00
2019-04-21T16:16:36.568Z,3472.00
2019-04-21T16:18:36.543Z,3432.00
2019-04-21T16:20:37.667Z,3396.00
2019-04-21T16:22:36.862Z,3348.00
2019-04-21T16:24:37.664Z,3308.00
2019-04-21T16:26:36.459Z,3256.00
2019-04-21T16:28:37.357Z,3208.00
2019-04-21T16:30:36.565Z,3164.00
2019-04-21T16:32:36.411Z,3120.00
2019-04-21T16:34:45.380Z,3072.00
2019-04-21T16:36:38.003Z,3028.00
2019-04-21T16:38:37.575Z,2984.00
2019-04-21T16:40:46.737Z,2932.00
2019-04-21T16:42:38.442Z,2888.00
2019-04-21T16:44:36.791Z,2840.00
2019-04-21T16:46:36.218Z,2796.00
2019-04-21T16:48:37.716Z,2756.00
2019-04-21T16:50:37.455Z,2708.00
2019-04-21T16:52:36.303Z,2664.00
2019-04-21T16:54:36.136Z,2620.00
2019-04-21T16:56:37.359Z,2572.00
2019-04-21T16:58:36.752Z,2524.00
2019-04-21T17:00:42.220Z,2492.00
2019-04-21T17:02:38.367Z,2452.00
2019-04-21T17:04:36.301Z,2412.00
2019-04-21T17:06:38.307Z,2376.00
2019-04-21T17:08:36.835Z,2340.00
2019-04-21T17:10:36.149Z,2300.00
2019-04-21T17:12:37.394Z,2264.00
2019-04-21T17:14:53.661Z,2228.00
2019-04-21T17:16:56.318Z,2184.00
2019-04-21T17:18:50.873Z,2140.00
2019-04-21T17:20:45.103Z,2092.00
2019-04-21T17:22:37.569Z,2040.00
2019-04-21T17:24:35.930Z,1988.00
2019-04-21T17:26:39.026Z,1944.00
2019-04-21T17:28:36.386Z,1900.00
2019-04-21T17:30:36.725Z,1856.00
2019-04-21T17:32:41.979Z,1812.00
2019-04-21T17:34:37.977Z,1772.00
2019-04-21T17:36:50.929Z,1728.00
2019-04-21T17:40:09.012Z,1648.00
2019-04-21T17:54:01.197Z,1304.00
2019-04-21T17:56:55.157Z,1244.00
2019-04-21T18:17:04.458Z,636.00
2019-04-21T18:18:50.674Z,576.00
2019-04-21T18:21:12.478Z,520.00
2019-04-21T18:32:27.627Z,244.00
2019-04-21T18:47:16.639Z,56.00
2019-04-21T18:51:11.385Z,28.00
2019-04-21T19:08:03.129Z,0.00
2019-04-21T19:15:17.875Z,0.00
2019-04-21T19:36:15.542Z,0.00
2019-04-21T21:13:17.147Z,0.00
2019-04-21T21:33:59.229Z,0.00
2019-04-21T21:59:01.229Z,0.00
2019-04-21T22:01:04.159Z,0.00
2019-04-21T22:03:10.514Z,0.00
2019-04-21T22:05:07.254Z,0.00
2019-04-21T22:07:05.402Z,0.00
2019-04-21T22:09:00.739Z,0.00
2019-04-21T22:11:01.223Z,0.00
2019-04-21T22:13:06.489Z,0.00
2019-04-21T22:15:02.387Z,0.00
2019-04-21T22:17:16.199Z,0.00
2019-04-21T22:19:15.591Z,0.00
2019-04-21T22:21:17.315Z,0.00
2019-04-21T22:23:07.240Z,0.00
2019-04-21T22:25:09.817Z,0.00
2019-04-21T22:27:01.194Z,0.00
2019-04-21T22:29:01.363Z,0.00
2019-04-21T22:30:58.800Z,0.00
2019-04-21T22:33:04.764Z,0.00
2019-04-21T22:35:04.828Z,0.00
2019-04-21T22:37:17.829Z,0.00
2019-04-21T22:39:19.285Z,0.00
2019-04-21T22:41:11.914Z,0.00
2019-04-21T22:43:11.677Z,0.00
2019-04-21T22:45:00.685Z,0.00
2019-04-21T22:47:10.978Z,0.00
2019-04-21T22:49:03.761Z,0.00
2019-04-21T22:51:00.648Z,0.00
2019-04-21T22:53:03.589Z,0.00
2019-04-21T22:55:00.860Z,0.00
2019-04-21T22:57:08.619Z,0.00
2019-04-21T22:59:03.074Z,0.00
2019-04-21T23:01:01.900Z,0.00
2019-04-21T23:03:05.266Z,0.00
2019-04-21T23:05:00.531Z,0.00
2019-04-21T23:07:02.861Z,0.00
2019-04-21T23:09:01.097Z,0.00
2019-04-21T23:11:04.422Z,0.00
2019-04-21T23:13:05.698Z,0.00
2019-04-21T23:15:07.828Z,0.00
2019-04-21T23:17:21.178Z,0.00
2019-04-21T23:19:17.001Z,0.00
2019-04-21T23:21:15.092Z,0.00
2019-04-21T23:23:19.176Z,0.00
2019-04-21T23:25:18.406Z,0.00
2019-04-21T23:27:11.684Z,0.00
2019-04-21T23:29:17.423Z,0.00
